createdAt,value
2022-12-01T00:01:44.361Z,28.48
2022-12-01T00:04:10.686Z,28.70
2022-12-01T00:06:37.023Z,28.27
2022-12-01T00:09:21.690Z,30.05
2022-12-01T00:11:48.217Z,28.33
2022-12-01T00:14:16.248Z,26.65
2022-12-01T00:16:44.402Z,27.55
2022-12-01T00:19:10.857Z,27.55
2022-12-01T00:21:37.163Z,28.50
2022-12-01T00:24:03.490Z,28.58
2022-12-01T00:26:29.794Z,28.55
2022-12-01T00:28:57.217Z,27.27
2022-12-01T00:31:23.947Z,29.20
2022-12-01T00:33:50.561Z,29.40
2022-12-01T00:36:17.008Z,27.55
2022-12-01T00:38:43.253Z,28.83
2022-12-01T00:41:09.584Z,27.33
2022-12-01T00:43:35.999Z,26.63
2022-12-01T00:46:02.311Z,29.02
2022-12-01T00:48:28.617Z,28.85
2022-12-01T00:50:55.302Z,27.45
2022-12-01T00:53:21.873Z,27.35
2022-12-01T00:55:48.144Z,28.40
2022-12-01T00:58:14.471Z,27.30
2022-12-01T01:00:40.714Z,27.80
2022-12-01T01:03:07.569Z,26.77
2022-12-01T01:05:40.585Z,26.65
2022-12-01T01:08:10.905Z,26.83
2022-12-01T01:10:44.407Z,25.73
2022-12-01T01:13:11.517Z,28.15
2022-12-01T01:15:38.289Z,28.52
2022-12-01T01:18:05.276Z,25.60
2022-12-01T01:20:31.818Z,27.17
2022-12-01T01:22:58.116Z,27.35
2022-12-01T01:25:24.827Z,27.45
2022-12-01T01:27:51.286Z,26.63
2022-12-01T01:30:18.283Z,25.85
2022-12-01T01:32:44.566Z,26.42
2022-12-01T01:35:10.843Z,28.05
2022-12-01T01:37:37.067Z,25.98
2022-12-01T01:40:03.624Z,25.58
2022-12-01T01:42:29.965Z,25.75
2022-12-01T01:44:57.618Z,25.02
2022-12-01T01:47:24.381Z,24.98
2022-12-01T01:49:51.072Z,26.50
2022-12-01T01:52:18.072Z,26.98
2022-12-01T01:54:46.277Z,26.33
2022-12-01T01:57:13.621Z,26.75
2022-12-01T01:59:45.646Z,25.90
2022-12-01T02:02:12.624Z,24.13
2022-12-01T02:04:41.547Z,25.33
2022-12-01T02:07:08.828Z,27.00
2022-12-01T02:09:36.241Z,27.17
2022-12-01T02:12:11.242Z,26.88
2022-12-01T02:14:54.968Z,26.20
2022-12-01T02:17:41.827Z,26.67
2022-12-01T02:20:17.284Z,28.05
2022-12-01T02:23:02.371Z,27.77
2022-12-01T02:25:38.663Z,26.95
2022-12-01T02:28:04.960Z,27.95
2022-12-01T02:30:34.098Z,28.67
2022-12-01T02:33:04.776Z,28.45
2022-12-01T02:38:03.259Z,27.65
2022-12-01T02:40:46.761Z,28.55
2022-12-01T02:43:27.303Z,27.90
2022-12-01T02:45:56.523Z,29.45
2022-12-01T02:48:30.951Z,28.15
2022-12-01T02:50:59.508Z,26.70
2022-12-01T02:53:25.920Z,27.90
2022-12-01T02:55:53.154Z,26.73
2022-12-01T02:58:19.565Z,27.92
2022-12-01T03:01:06.164Z,28.23
2022-12-01T03:03:45.496Z,27.80
2022-12-01T03:06:20.267Z,28.42
2022-12-01T03:09:03.070Z,27.98
2022-12-01T03:11:56.891Z,28.15
2022-12-01T03:14:31.705Z,28.73
2022-12-01T03:16:59.672Z,29.33
2022-12-01T03:19:25.941Z,28.50
2022-12-01T03:22:00.165Z,29.13
2022-12-01T03:24:27.645Z,29.83
2022-12-01T03:26:56.926Z,27.70
2022-12-01T03:29:27.856Z,30.95
2022-12-01T03:31:56.789Z,28.30
2022-12-01T03:34:36.462Z,27.42
2022-12-01T03:37:07.186Z,26.98
2022-12-01T03:42:02.212Z,28.80
2022-12-01T03:44:34.546Z,25.17
2022-12-01T03:47:04.257Z,27.67
2022-12-01T03:49:31.001Z,26.77
2022-12-01T03:52:15.777Z,27.35
2022-12-01T03:54:52.078Z,28.27
2022-12-01T03:57:23.727Z,28.55
2022-12-01T03:59:50.231Z,27.90
2022-12-01T04:02:17.229Z,26.38
2022-12-01T04:04:43.509Z,27.42
2022-12-01T04:07:13.410Z,26.42
2022-12-01T04:09:42.522Z,25.87
2022-12-01T04:12:29.934Z,26.55
2022-12-01T04:14:57.390Z,26.27
2022-12-01T04:17:24.210Z,26.08
2022-12-01T04:19:50.755Z,27.75
2022-12-01T04:22:17.236Z,26.58
2022-12-01T04:24:43.709Z,26.50
2022-12-01T04:27:09.954Z,26.10
2022-12-01T04:29:36.252Z,24.10
2022-12-01T04:32:02.528Z,26.20
2022-12-01T04:34:28.815Z,26.25
2022-12-01T04:36:55.230Z,25.75
2022-12-01T04:39:21.554Z,28.00
2022-12-01T04:41:47.790Z,27.05
2022-12-01T04:44:14.289Z,26.98
2022-12-01T04:46:40.658Z,26.40
2022-12-01T04:49:06.945Z,27.13
2022-12-01T04:51:34.295Z,26.95
2022-12-01T04:54:01.421Z,25.65
2022-12-01T04:56:27.689Z,26.92
2022-12-01T04:58:54.026Z,26.88
2022-12-01T05:01:20.465Z,26.63
2022-12-01T05:03:49.553Z,27.35
2022-12-01T05:06:20.224Z,27.23
2022-12-01T05:11:13.602Z,27.08
2022-12-01T05:13:40.985Z,26.92
2022-12-01T05:16:08.969Z,28.25
2022-12-01T05:18:35.350Z,26.00
2022-12-01T05:21:03.858Z,28.13
2022-12-01T05:23:31.654Z,27.25
2022-12-01T05:25:57.917Z,26.70
2022-12-01T05:28:25.323Z,28.13
2022-12-01T05:30:51.629Z,27.00
2022-12-01T05:33:17.902Z,27.15
2022-12-01T05:35:44.269Z,26.88
2022-12-01T05:38:10.595Z,26.75
2022-12-01T05:40:37.005Z,26.80
2022-12-01T05:43:03.484Z,27.52
2022-12-01T05:45:30.089Z,27.92
2022-12-01T05:47:56.902Z,26.10
2022-12-01T05:50:23.533Z,26.55
2022-12-01T05:52:49.814Z,27.92
2022-12-01T05:55:16.156Z,27.73
2022-12-01T05:57:42.446Z,27.58
2022-12-01T06:00:09.127Z,28.65
2022-12-01T06:02:35.399Z,26.10
2022-12-01T06:05:01.759Z,29.02
2022-12-01T06:07:28.153Z,29.27
2022-12-01T06:09:54.520Z,28.88
2022-12-01T06:12:20.968Z,27.33
2022-12-01T06:14:47.194Z,27.80
2022-12-01T06:17:13.423Z,27.48
2022-12-01T06:19:39.717Z,27.33
2022-12-01T06:22:05.958Z,27.15
2022-12-01T06:24:32.277Z,27.10
2022-12-01T06:26:58.624Z,26.75
2022-12-01T06:29:24.873Z,27.55
2022-12-01T06:31:51.139Z,25.90
2022-12-01T06:34:17.462Z,25.02
2022-12-01T06:36:43.722Z,25.75
2022-12-01T06:39:10.358Z,26.20
2022-12-01T06:41:37.291Z,26.58
2022-12-01T06:44:04.136Z,27.10
2022-12-01T06:46:30.679Z,25.90
2022-12-01T06:48:57.148Z,26.08
2022-12-01T06:51:23.417Z,25.55
2022-12-01T06:53:53.637Z,25.08
2022-12-01T06:56:19.897Z,24.98
2022-12-01T06:58:46.691Z,25.58
2022-12-01T07:01:13.396Z,25.75
2022-12-01T07:03:40.088Z,26.60
2022-12-01T07:06:06.382Z,26.58
2022-12-01T07:08:32.919Z,25.50
2022-12-01T07:11:03.812Z,25.35
2022-12-01T07:13:33.769Z,23.33
2022-12-01T07:16:01.223Z,22.67
2022-12-01T07:18:27.443Z,25.33
2022-12-01T07:20:53.686Z,23.90
2022-12-01T07:23:21.322Z,23.80
2022-12-01T07:25:47.530Z,22.80
2022-12-01T07:28:13.801Z,24.08
2022-12-01T07:30:40.145Z,23.85
2022-12-01T07:33:06.405Z,22.30
2022-12-01T07:35:32.678Z,25.00
2022-12-01T07:37:58.949Z,23.33
2022-12-01T07:40:25.305Z,23.10
2022-12-01T07:42:51.571Z,24.83
2022-12-01T07:45:17.797Z,24.50
2022-12-01T07:47:44.510Z,25.58
2022-12-01T07:50:11.072Z,23.67
2022-12-01T07:52:37.305Z,23.35
2022-12-01T07:55:03.591Z,24.25
2022-12-01T07:57:29.885Z,24.85
2022-12-01T07:59:56.109Z,25.48
2022-12-01T08:02:22.458Z,27.25
2022-12-01T08:04:48.891Z,26.92
2022-12-01T08:07:15.109Z,29.17
2022-12-01T08:09:41.366Z,29.15
2022-12-01T08:12:07.757Z,29.42
2022-12-01T08:14:33.980Z,30.25
2022-12-01T08:17:00.423Z,31.50
2022-12-01T08:19:27.653Z,30.65
2022-12-01T08:21:53.872Z,32.90
2022-12-01T08:24:20.138Z,30.75
2022-12-01T08:26:46.435Z,32.22
2022-12-01T08:29:17.020Z,32.47
2022-12-01T08:31:46.078Z,32.20
2022-12-01T08:34:12.291Z,35.10
2022-12-01T08:36:38.518Z,33.53
2022-12-01T08:39:04.730Z,34.97
2022-12-01T08:41:31.751Z,33.97
2022-12-01T08:44:08.842Z,35.08
2022-12-01T08:46:35.485Z,36.50
2022-12-01T08:49:02.589Z,35.47
2022-12-01T08:51:28.938Z,33.67
2022-12-01T08:53:56.339Z,36.35
2022-12-01T08:56:27.062Z,36.85
2022-12-01T09:01:20.040Z,35.78
2022-12-01T09:03:46.726Z,36.53
2022-12-01T09:06:17.819Z,36.25
2022-12-01T09:08:44.266Z,37.25
2022-12-01T09:11:12.052Z,37.47
2022-12-01T09:13:39.524Z,37.80
2022-12-01T09:16:07.498Z,38.53
2022-12-01T09:18:34.319Z,38.08
2022-12-01T09:21:00.593Z,37.13
2022-12-01T09:23:27.060Z,37.28
2022-12-01T09:25:53.622Z,35.20
2022-12-01T09:28:19.931Z,35.72
2022-12-01T09:30:46.773Z,35.42
2022-12-01T09:33:13.403Z,36.95
2022-12-01T09:35:39.732Z,36.70
2022-12-01T09:38:06.025Z,35.08
2022-12-01T09:40:35.434Z,36.85
2022-12-01T09:43:03.438Z,36.97
2022-12-01T09:45:31.667Z,34.35
2022-12-01T09:47:59.993Z,34.72
2022-12-01T09:50:27.416Z,35.38
2022-12-01T09:53:02.521Z,33.35
2022-12-01T09:55:30.221Z,34.60
2022-12-01T09:57:57.865Z,33.63
2022-12-01T10:00:26.144Z,36.13
2022-12-01T10:02:54.755Z,35.05
2022-12-01T10:05:22.340Z,33.55
2022-12-01T10:07:52.716Z,33.40
2022-12-01T10:10:30.199Z,34.97
2022-12-01T10:12:56.810Z,32.78
2022-12-01T10:15:45.645Z,32.75
2022-12-01T10:18:14.778Z,32.15
2022-12-01T10:20:45.383Z,32.70
2022-12-01T10:25:43.522Z,33.00
2022-12-01T10:28:21.050Z,34.08
2022-12-01T10:30:51.439Z,34.17
2022-12-01T10:33:25.409Z,34.40
2022-12-01T10:35:52.370Z,35.05
2022-12-01T10:38:32.579Z,34.65
2022-12-01T10:41:00.875Z,33.95
2022-12-01T10:43:31.571Z,34.53
2022-12-01T10:48:24.118Z,33.30
2022-12-01T10:50:51.809Z,33.80
2022-12-01T10:53:29.504Z,34.30
2022-12-01T10:55:58.621Z,34.70
2022-12-01T10:58:25.816Z,34.63
2022-12-01T11:01:01.168Z,34.80
2022-12-01T11:03:30.005Z,35.17
2022-12-01T11:05:58.228Z,35.20
2022-12-01T11:08:30.070Z,36.33
2022-12-01T11:10:56.557Z,34.75
2022-12-01T11:13:24.489Z,33.10
2022-12-01T11:15:55.078Z,32.42
2022-12-01T11:20:48.416Z,30.25
2022-12-01T11:23:17.427Z,29.13
2022-12-01T11:26:02.422Z,29.58
2022-12-01T11:28:29.360Z,30.33
2022-12-01T11:30:57.313Z,30.88
2022-12-01T11:33:23.597Z,29.80
2022-12-01T11:35:49.943Z,30.20
2022-12-01T11:38:30.746Z,32.45
2022-12-01T11:40:58.065Z,32.10
2022-12-01T11:43:31.877Z,30.48
2022-12-01T11:45:59.672Z,30.48
2022-12-01T11:48:28.100Z,30.55
2022-12-01T11:51:08.204Z,30.95
2022-12-01T11:53:39.359Z,28.50
2022-12-01T11:56:14.999Z,28.02
2022-12-01T11:58:42.154Z,29.08
2022-12-01T12:01:18.962Z,27.80
2022-12-01T12:04:06.726Z,29.05
2022-12-01T12:06:44.592Z,28.02
2022-12-01T12:09:10.953Z,27.20
2022-12-01T12:11:41.927Z,27.05
2022-12-01T12:14:26.775Z,27.13
2022-12-01T12:17:12.606Z,27.17
2022-12-01T12:20:06.656Z,26.92
2022-12-01T12:22:30.902Z,25.73
2022-12-01T12:24:57.154Z,26.65
2022-12-01T12:27:38.445Z,25.50
2022-12-01T12:30:20.017Z,26.90
2022-12-01T12:32:46.283Z,27.35
2022-12-01T12:35:18.491Z,26.05
2022-12-01T12:37:52.630Z,26.73
2022-12-01T12:40:24.748Z,25.98
2022-12-01T12:43:10.740Z,26.15
2022-12-01T12:45:36.973Z,25.83
2022-12-01T12:48:08.885Z,26.35
2022-12-01T12:50:52.985Z,26.73
2022-12-01T12:53:24.602Z,25.95
2022-12-01T12:55:52.787Z,27.08
2022-12-01T12:58:34.132Z,26.92
2022-12-01T13:01:03.480Z,27.27
2022-12-01T13:03:33.973Z,26.70
2022-12-01T13:06:03.313Z,27.75
2022-12-01T13:08:34.298Z,26.80
2022-12-01T13:11:24.533Z,29.50
2022-12-01T13:13:53.782Z,28.38
2022-12-01T13:16:30.660Z,27.45
2022-12-01T13:19:04.910Z,28.45
2022-12-01T13:21:36.804Z,27.17
2022-12-01T13:24:04.031Z,27.35
2022-12-01T13:26:30.814Z,26.88
2022-12-01T13:28:57.784Z,25.15
2022-12-01T13:31:24.224Z,25.80
2022-12-01T13:34:03.692Z,25.05
2022-12-01T13:36:45.884Z,27.65
2022-12-01T13:39:21.066Z,27.20
2022-12-01T13:41:56.351Z,27.45
2022-12-01T13:44:24.821Z,27.20
2022-12-01T13:46:51.146Z,27.38
2022-12-01T13:49:36.769Z,26.20
2022-12-01T13:52:21.350Z,26.75
2022-12-01T13:55:02.581Z,27.55
2022-12-01T13:57:30.555Z,26.98
2022-12-01T13:59:59.579Z,27.15
2022-12-01T14:02:30.315Z,27.35
2022-12-01T14:05:15.455Z,25.40
2022-12-01T14:07:41.909Z,27.02
2022-12-01T14:10:23.974Z,25.33
2022-12-01T14:12:51.303Z,24.83
2022-12-01T14:15:29.654Z,25.60
2022-12-01T14:18:04.266Z,26.13
2022-12-01T14:20:32.394Z,24.58
2022-12-01T14:23:03.536Z,24.60
2022-12-01T14:25:30.737Z,25.30
2022-12-01T14:27:58.626Z,24.55
2022-12-01T14:30:40.132Z,25.65
2022-12-01T14:33:24.932Z,26.50
2022-12-01T14:35:52.181Z,25.90
2022-12-01T14:38:18.485Z,26.23
2022-12-01T14:40:44.748Z,26.27
2022-12-01T14:43:30.903Z,26.85
2022-12-01T14:46:05.935Z,25.17
2022-12-01T14:48:35.756Z,26.35
2022-12-01T14:51:11.924Z,24.87
2022-12-01T14:53:40.712Z,26.40
2022-12-01T14:56:12.553Z,26.98
2022-12-01T14:58:38.908Z,26.25
2022-12-01T15:01:07.144Z,27.45
2022-12-01T15:03:36.187Z,27.20
2022-12-01T15:06:02.532Z,26.58
2022-12-01T15:09:04.109Z,25.75
2022-12-01T15:11:22.947Z,26.35
2022-12-01T15:13:53.409Z,26.58
2022-12-01T15:16:24.079Z,25.13
2022-12-01T15:18:50.372Z,26.98
2022-12-01T15:21:20.535Z,24.98
2022-12-01T15:23:52.633Z,25.55
2022-12-01T15:26:19.499Z,25.98
2022-12-01T15:28:45.758Z,25.45
2022-12-01T15:31:13.338Z,24.58
2022-12-01T15:33:44.431Z,25.73
2022-12-01T15:36:10.921Z,24.95
2022-12-01T15:38:37.698Z,26.13
2022-12-01T15:41:28.366Z,24.65
2022-12-01T15:43:56.197Z,23.33
2022-12-01T15:46:29.997Z,24.75
2022-12-01T15:49:29.422Z,23.90
2022-12-01T15:52:04.726Z,25.73
2022-12-01T15:54:31.438Z,26.50
2022-12-01T15:57:01.520Z,25.85
2022-12-01T15:59:27.799Z,24.73
2022-12-01T16:01:54.519Z,23.40
2022-12-01T16:04:22.830Z,23.58
2022-12-01T16:07:08.344Z,23.55
2022-12-01T16:09:38.667Z,23.42
2022-12-01T16:12:17.520Z,24.50
2022-12-01T16:14:50.115Z,24.65
2022-12-01T16:17:17.137Z,24.38
2022-12-01T16:19:45.386Z,24.05
2022-12-01T16:22:11.658Z,24.27
2022-12-01T16:24:43.639Z,23.45
2022-12-01T16:27:18.396Z,23.92
2022-12-01T16:29:50.516Z,24.23
2022-12-01T16:32:20.677Z,21.95
2022-12-01T16:37:14.815Z,22.83
2022-12-01T16:39:41.092Z,24.30
2022-12-01T16:42:10.598Z,22.85
2022-12-01T16:44:36.919Z,23.33
2022-12-01T16:47:03.158Z,22.75
2022-12-01T16:49:29.442Z,22.88
2022-12-01T16:51:57.055Z,23.33
2022-12-01T16:54:24.290Z,21.95
2022-12-01T16:56:51.266Z,22.90
2022-12-01T16:59:18.062Z,21.67
2022-12-01T17:01:44.396Z,22.30
2022-12-01T17:04:10.715Z,21.98
2022-12-01T17:06:38.307Z,23.65
2022-12-01T17:09:04.719Z,23.50
2022-12-01T17:11:30.956Z,23.13
2022-12-01T17:13:57.260Z,20.48
2022-12-01T17:16:23.627Z,20.83
2022-12-01T17:18:49.915Z,20.83
2022-12-01T17:21:16.149Z,20.17
2022-12-01T17:23:42.392Z,22.48
2022-12-01T17:26:10.359Z,21.15
2022-12-01T17:28:36.714Z,20.05
2022-12-01T17:31:03.568Z,20.17
2022-12-01T17:33:29.994Z,21.70
2022-12-01T17:35:59.636Z,21.30
2022-12-01T17:38:25.882Z,20.52
2022-12-01T17:41:11.500Z,20.67
2022-12-01T17:43:38.476Z,21.25
2022-12-01T17:46:05.752Z,20.52
2022-12-01T17:48:36.261Z,19.50
2022-12-01T17:51:02.507Z,20.92
2022-12-01T17:53:28.791Z,19.63
2022-12-01T17:55:54.996Z,21.05
2022-12-01T17:58:21.639Z,19.80
2022-12-01T18:00:49.712Z,21.23
2022-12-01T18:03:15.990Z,21.60
2022-12-01T18:05:42.349Z,21.35
2022-12-01T18:08:08.639Z,21.83
2022-12-01T18:10:35.228Z,22.73
2022-12-01T18:13:01.762Z,21.80
2022-12-01T18:15:31.763Z,22.58
2022-12-01T18:18:00.977Z,22.15
2022-12-01T18:20:27.248Z,24.08
2022-12-01T18:22:53.492Z,22.90
2022-12-01T18:25:19.842Z,22.13
2022-12-01T18:27:46.140Z,21.80
2022-12-01T18:30:12.703Z,22.83
2022-12-01T18:32:39.053Z,24.33
2022-12-01T18:35:05.588Z,22.23
2022-12-01T18:37:31.903Z,22.02
2022-12-01T18:39:58.147Z,20.60
2022-12-01T18:42:24.580Z,21.50
2022-12-01T18:44:51.215Z,20.48
2022-12-01T18:47:17.726Z,21.08
2022-12-01T18:49:44.037Z,21.48
2022-12-01T18:52:10.451Z,22.75
2022-12-01T18:54:36.823Z,22.50
2022-12-01T18:57:03.102Z,21.77
2022-12-01T18:59:29.463Z,22.13
2022-12-01T19:01:55.831Z,23.52
2022-12-01T19:04:22.420Z,20.90
2022-12-01T19:06:48.688Z,22.73
2022-12-01T19:09:16.070Z,22.75
2022-12-01T19:11:43.146Z,22.85
2022-12-01T19:14:17.110Z,21.38
2022-12-01T19:16:43.815Z,22.35
2022-12-01T19:19:10.169Z,21.55
2022-12-01T19:21:36.525Z,23.17
2022-12-01T19:24:02.782Z,21.50
2022-12-01T19:26:29.126Z,22.75
2022-12-01T19:28:55.388Z,22.10
2022-12-01T19:31:23.735Z,24.35
2022-12-01T19:33:50.725Z,24.23
2022-12-01T19:36:18.289Z,25.20
2022-12-01T19:38:45.092Z,22.10
2022-12-01T19:41:11.810Z,23.23
2022-12-01T19:43:38.141Z,24.50
2022-12-01T19:46:07.929Z,24.10
2022-12-01T19:48:34.646Z,24.57
2022-12-01T19:51:00.919Z,23.88
2022-12-01T19:53:31.983Z,23.38
2022-12-01T19:56:01.600Z,23.73
2022-12-01T19:58:27.823Z,22.02
2022-12-01T20:00:54.243Z,22.90
2022-12-01T20:03:20.584Z,23.90
2022-12-01T20:05:46.852Z,23.77
2022-12-01T20:08:13.858Z,24.20
2022-12-01T20:10:47.677Z,24.63
2022-12-01T20:13:14.002Z,24.75
2022-12-01T20:15:40.278Z,23.92
2022-12-01T20:18:06.504Z,23.15
2022-12-01T20:20:32.734Z,23.75
2022-12-01T20:22:58.971Z,24.27
2022-12-01T20:25:25.174Z,24.35
2022-12-01T20:27:51.382Z,24.67
2022-12-01T20:30:17.679Z,24.45
2022-12-01T20:32:43.922Z,22.23
2022-12-01T20:35:10.166Z,24.17
2022-12-01T20:37:36.481Z,23.80
2022-12-01T20:40:02.849Z,25.23
2022-12-01T20:42:29.070Z,24.60
2022-12-01T20:44:55.284Z,25.40
2022-12-01T20:47:21.602Z,26.00
2022-12-01T20:49:47.989Z,26.40
2022-12-01T20:52:14.248Z,27.08
2022-12-01T20:54:42.358Z,25.95
2022-12-01T20:57:08.787Z,25.58
2022-12-01T20:59:35.090Z,27.38
2022-12-01T21:02:01.385Z,26.70
2022-12-01T21:04:27.723Z,26.35
2022-12-01T21:06:57.510Z,24.02
2022-12-01T21:09:24.031Z,25.73
2022-12-01T21:12:09.498Z,25.52
2022-12-01T21:14:47.534Z,26.35
2022-12-01T21:17:34.185Z,25.55
2022-12-01T21:20:21.863Z,24.42
2022-12-01T21:22:49.486Z,26.17
2022-12-01T21:25:18.786Z,26.38
2022-12-01T21:27:45.826Z,27.13
2022-12-01T21:30:16.951Z,26.98
2022-12-01T21:32:44.497Z,27.75
2022-12-01T21:35:16.853Z,26.88
2022-12-01T21:37:43.344Z,27.88
2022-12-01T21:40:16.528Z,29.02
2022-12-01T21:42:42.981Z,28.77
2022-12-01T21:45:16.638Z,27.88
2022-12-01T21:47:42.919Z,28.50
2022-12-01T21:50:14.122Z,28.10
2022-12-01T21:52:41.651Z,30.00
2022-12-01T21:55:13.993Z,29.13
2022-12-01T21:57:43.052Z,29.25
2022-12-01T22:00:29.775Z,30.25
2022-12-01T22:03:01.793Z,31.55
2022-12-01T22:06:01.201Z,29.98
2022-12-01T22:08:31.901Z,31.13
2022-12-01T22:11:00.954Z,33.35
2022-12-01T22:13:32.209Z,32.47
2022-12-01T22:15:58.509Z,31.17
2022-12-01T22:18:27.233Z,30.55
2022-12-01T22:20:53.862Z,30.65
2022-12-01T22:23:33.014Z,31.08
2022-12-01T22:25:59.330Z,31.92
2022-12-01T22:28:25.702Z,33.40
2022-12-01T22:30:52.072Z,34.53
2022-12-01T22:33:21.161Z,34.33
2022-12-01T22:35:49.087Z,32.80
2022-12-01T22:38:19.469Z,34.38
2022-12-01T22:40:48.503Z,35.15
2022-12-01T22:43:14.784Z,34.88
2022-12-01T22:45:41.357Z,33.97
2022-12-01T22:48:15.662Z,35.10
2022-12-01T22:50:42.084Z,34.10
2022-12-01T22:53:19.004Z,33.40
2022-12-01T22:55:45.272Z,34.33
2022-12-01T22:58:24.733Z,33.78
2022-12-01T23:00:52.226Z,34.22
2022-12-01T23:03:18.525Z,33.30
2022-12-01T23:05:45.331Z,35.17
2022-12-01T23:08:16.186Z,34.70
2022-12-01T23:10:42.498Z,35.00
2022-12-01T23:13:12.756Z,35.42
2022-12-01T23:15:39.984Z,34.72
2022-12-01T23:18:35.582Z,34.55
2022-12-01T23:21:02.315Z,36.13
2022-12-01T23:23:30.676Z,38.10
2022-12-01T23:25:57.232Z,37.83
2022-12-01T23:28:24.038Z,39.30
2022-12-01T23:30:52.708Z,36.72
2022-12-01T23:33:21.450Z,41.70
2022-12-01T23:35:50.660Z,39.30
2022-12-01T23:38:24.516Z,42.28
2022-12-01T23:40:52.013Z,41.40
2022-12-01T23:43:23.049Z,40.15
2022-12-01T23:45:50.892Z,40.85
2022-12-01T23:48:32.678Z,43.05
2022-12-01T23:50:58.983Z,42.70
2022-12-01T23:53:27.040Z,45.10
2022-12-01T23:55:53.729Z,44.03
2022-12-01T23:58:20.105Z,40.97
